createdAt,value
2018-02-24T00:00:50.982Z,77.60
2018-02-24T00:03:19.245Z,76.40
2018-02-24T00:05:46.770Z,76.30
2018-02-24T00:08:14.278Z,76.10
2018-02-24T00:10:41.804Z,76.00
2018-02-24T00:13:09.307Z,75.90
2018-02-24T00:15:36.811Z,76.10
2018-02-24T00:18:04.331Z,76.10
2018-02-24T00:20:31.831Z,76.10
2018-02-24T00:22:59.353Z,76.20
2018-02-24T00:25:26.858Z,76.20
2018-02-24T00:27:54.359Z,76.20
2018-02-24T00:30:21.882Z,76.70
2018-02-24T00:32:49.388Z,76.60
2018-02-24T00:35:17.185Z,76.80
2018-02-24T00:37:44.685Z,76.90
2018-02-24T00:40:12.186Z,76.90
2018-02-24T00:42:39.710Z,76.90
2018-02-24T00:45:07.214Z,77.10
2018-02-24T00:47:34.735Z,77.40
2018-02-24T00:50:02.238Z,77.30
2018-02-24T00:52:29.763Z,77.60
2018-02-24T00:54:57.258Z,77.80
2018-02-24T00:57:24.757Z,77.60
2018-02-24T00:59:53.101Z,77.70
2018-02-24T01:02:20.604Z,78.00
2018-02-24T01:04:48.129Z,78.20
2018-02-24T01:07:16.394Z,78.60
2018-02-24T01:09:43.894Z,78.80
2018-02-24T01:12:11.426Z,78.80
2018-02-24T01:14:39.694Z,78.90
2018-02-24T01:17:07.214Z,78.90
2018-02-24T01:19:34.718Z,79.00
2018-02-24T01:22:03.021Z,78.90
2018-02-24T01:24:30.530Z,78.90
2018-02-24T01:26:58.030Z,78.80
2018-02-24T01:29:25.553Z,78.80
2018-02-24T01:31:53.051Z,79.10
2018-02-24T01:34:20.570Z,79.10
2018-02-24T01:36:48.070Z,80.00
2018-02-24T01:39:15.590Z,79.40
2018-02-24T01:41:43.091Z,79.50
2018-02-24T01:44:10.594Z,79.60
2018-02-24T01:46:38.128Z,79.30
2018-02-24T01:49:05.625Z,79.30
2018-02-24T01:51:33.146Z,79.40
2018-02-24T01:54:00.650Z,79.60
2018-02-24T01:56:28.938Z,79.90
2018-02-24T01:58:57.205Z,79.80
2018-02-24T02:01:25.470Z,79.90
2018-02-24T02:03:52.985Z,79.80
2018-02-24T02:06:20.482Z,79.80
2018-02-24T02:08:48.002Z,79.70
2018-02-24T02:11:15.505Z,79.80
2018-02-24T02:13:43.033Z,80.00
2018-02-24T02:16:10.531Z,80.00
2018-02-24T02:18:38.051Z,79.90
2018-02-24T02:21:05.571Z,80.00
2018-02-24T02:23:33.070Z,80.20
2018-02-24T02:26:00.603Z,80.40
2018-02-24T02:28:28.102Z,80.20
2018-02-24T02:30:55.623Z,80.30
2018-02-24T02:33:23.122Z,80.40
2018-02-24T02:35:50.622Z,80.50
2018-02-24T02:38:18.148Z,80.60
2018-02-24T02:40:45.655Z,80.50
2018-02-24T02:43:13.183Z,80.50
2018-02-24T02:45:41.446Z,80.60
2018-02-24T02:48:08.969Z,80.50
2018-02-24T02:50:36.468Z,80.60
2018-02-24T02:53:04.734Z,80.90
2018-02-24T02:55:32.258Z,80.90
2018-02-24T02:57:59.761Z,81.00
2018-02-24T03:00:28.050Z,81.20
2018-02-24T03:02:56.329Z,81.30
2018-02-24T03:05:23.862Z,81.30
2018-02-24T03:07:52.143Z,81.50
2018-02-24T03:10:19.642Z,81.50
2018-02-24T03:12:47.171Z,81.60
2018-02-24T03:15:15.433Z,82.20
2018-02-24T03:17:42.950Z,82.10
2018-02-24T03:20:10.450Z,82.00
2018-02-24T03:22:37.981Z,82.10
2018-02-24T03:25:05.482Z,82.20
2018-02-24T03:27:33.748Z,82.40
2018-02-24T03:30:01.270Z,82.20
2018-02-24T03:32:28.772Z,82.50
2018-02-24T03:34:57.063Z,82.80
2018-02-24T03:37:24.562Z,82.80
2018-02-24T03:39:52.582Z,82.70
2018-02-24T03:42:20.846Z,83.60
2018-02-24T03:44:48.346Z,82.80
2018-02-24T03:47:15.870Z,82.80
2018-02-24T03:49:43.375Z,82.90
2018-02-24T03:52:10.898Z,83.00
2018-02-24T03:54:39.162Z,83.40
2018-02-24T03:57:07.451Z,83.50
2018-02-24T03:59:35.722Z,83.40
2018-02-24T04:02:03.989Z,83.70
2018-02-24T04:04:32.279Z,83.70
2018-02-24T04:06:59.791Z,83.70
2018-02-24T04:09:27.315Z,83.90
2018-02-24T04:11:54.818Z,83.90
2018-02-24T04:14:22.337Z,84.00
2018-02-24T04:16:49.838Z,84.10
2018-02-24T04:19:17.338Z,84.20
2018-02-24T04:21:44.858Z,84.20
2018-02-24T04:24:12.354Z,84.20
2018-02-24T04:26:39.881Z,84.10
2018-02-24T04:29:07.374Z,84.20
2018-02-24T04:31:34.894Z,84.10
2018-02-24T04:34:02.394Z,84.20
2018-02-24T04:36:29.894Z,84.10
2018-02-24T04:38:57.415Z,84.30
2018-02-24T04:41:24.917Z,84.10
2018-02-24T04:43:52.438Z,84.40
2018-02-24T04:46:19.942Z,84.20
2018-02-24T04:48:47.466Z,84.20
2018-02-24T04:51:14.969Z,84.40
2018-02-24T04:53:42.469Z,84.30
2018-02-24T04:56:09.990Z,84.10
2018-02-24T04:58:37.490Z,84.20
2018-02-24T05:01:05.014Z,84.30
2018-02-24T05:03:33.279Z,84.40
2018-02-24T05:06:00.809Z,84.40
2018-02-24T05:08:28.310Z,84.50
2018-02-24T05:10:56.575Z,84.70
2018-02-24T05:13:24.096Z,84.60
2018-02-24T05:15:51.593Z,84.60
2018-02-24T05:18:19.886Z,85.00
2018-02-24T05:20:48.150Z,84.60
2018-02-24T05:23:16.443Z,84.90
2018-02-24T05:25:43.943Z,84.70
2018-02-24T05:28:11.445Z,84.90
2018-02-24T05:30:38.983Z,85.00
2018-02-24T05:33:06.486Z,84.80
2018-02-24T05:35:34.007Z,84.80
2018-02-24T05:38:01.508Z,84.60
2018-02-24T05:40:29.038Z,84.70
2018-02-24T05:42:56.538Z,84.70
2018-02-24T05:45:24.039Z,84.60
2018-02-24T05:47:51.561Z,84.90
2018-02-24T05:50:19.063Z,85.00
2018-02-24T05:52:47.349Z,85.30
2018-02-24T05:55:14.850Z,85.00
2018-02-24T05:57:42.374Z,85.20
2018-02-24T06:00:10.647Z,85.30
2018-02-24T06:02:38.146Z,85.30
2018-02-24T06:05:05.665Z,85.40
2018-02-24T06:07:33.933Z,85.60
2018-02-24T06:10:01.470Z,85.60
2018-02-24T06:12:28.971Z,85.50
2018-02-24T06:14:56.493Z,85.40
2018-02-24T06:17:23.989Z,85.40
2018-02-24T06:19:51.486Z,85.30
2018-02-24T06:22:19.006Z,85.40
2018-02-24T06:24:46.506Z,85.40
2018-02-24T06:27:14.027Z,85.30
2018-02-24T06:29:41.531Z,85.40
2018-02-24T06:32:09.058Z,85.30
2018-02-24T06:34:36.558Z,85.40
2018-02-24T06:37:04.057Z,85.30
2018-02-24T06:39:31.582Z,85.40
2018-02-24T06:41:59.087Z,85.30
2018-02-24T06:44:26.615Z,84.90
2018-02-24T06:46:54.881Z,85.30
2018-02-24T06:49:22.406Z,85.30
2018-02-24T06:51:49.908Z,85.30
2018-02-24T06:54:18.178Z,85.30
2018-02-24T06:56:46.466Z,85.40
2018-02-24T06:59:13.975Z,85.30
2018-02-24T07:01:41.498Z,85.20
2018-02-24T07:04:09.002Z,85.00
2018-02-24T07:06:36.541Z,84.70
2018-02-24T07:09:04.059Z,84.50
2018-02-24T07:11:32.326Z,84.00
2018-02-24T07:14:00.615Z,83.60
2018-02-24T07:16:28.118Z,83.40
2018-02-24T07:18:55.643Z,83.40
2018-02-24T07:21:23.142Z,83.00
2018-02-24T07:23:50.666Z,83.00
2018-02-24T07:26:18.173Z,82.70
2018-02-24T07:28:45.674Z,82.50
2018-02-24T07:31:13.202Z,82.10
2018-02-24T07:33:41.469Z,82.20
2018-02-24T07:36:08.995Z,81.40
2018-02-24T07:38:36.494Z,81.10
2018-02-24T07:41:04.018Z,81.00
2018-02-24T07:43:31.518Z,80.40
2018-02-24T07:45:59.787Z,79.50
2018-02-24T07:48:28.082Z,79.20
2018-02-24T07:50:56.349Z,78.80
2018-02-24T07:53:24.637Z,78.40
2018-02-24T07:55:52.906Z,77.80
2018-02-24T07:58:20.430Z,77.80
2018-02-24T08:00:48.698Z,76.20
2018-02-24T08:03:16.197Z,76.20
2018-02-24T08:05:44.490Z,75.10
2018-02-24T08:08:12.007Z,74.90
2018-02-24T08:10:39.534Z,74.80
2018-02-24T08:13:07.043Z,74.30
2018-02-24T08:15:35.338Z,73.40
2018-02-24T08:18:02.842Z,73.30
2018-02-24T08:20:30.342Z,73.10
2018-02-24T08:22:58.631Z,71.90
2018-02-24T08:25:26.142Z,71.90
2018-02-24T08:27:54.430Z,71.20
2018-02-24T08:30:21.940Z,71.90
2018-02-24T08:32:49.511Z,70.80
2018-02-24T08:35:16.990Z,69.50
2018-02-24T08:37:44.494Z,69.10
2018-02-24T08:40:12.781Z,66.70
2018-02-24T08:42:40.282Z,66.60
2018-02-24T08:45:07.801Z,67.50
2018-02-24T08:47:35.302Z,68.00
2018-02-24T08:50:02.828Z,66.30
2018-02-24T08:52:30.329Z,63.70
2018-02-24T08:54:57.839Z,63.40
2018-02-24T08:57:25.365Z,60.10
2018-02-24T08:59:53.642Z,59.00
2018-02-24T09:02:21.934Z,57.30
2018-02-24T09:04:49.434Z,57.30
2018-02-24T09:07:16.963Z,55.40
2018-02-24T09:09:44.462Z,48.50
2018-02-24T09:12:11.962Z,43.20
2018-02-24T09:14:40.250Z,32.30
2018-02-24T09:17:07.750Z,32.20
2018-02-24T09:19:35.274Z,30.70
2018-02-24T09:22:02.783Z,27.30
2018-02-24T09:24:30.310Z,25.80
2018-02-24T09:26:57.816Z,23.80
2018-02-24T09:29:25.317Z,22.90
2018-02-24T09:31:52.842Z,22.20
2018-02-24T09:34:21.250Z,20.50
2018-02-24T09:36:48.774Z,20.50
2018-02-24T09:39:17.050Z,20.60
2018-02-24T09:41:44.582Z,20.00
2018-02-24T09:44:12.085Z,19.30
2018-02-24T09:46:40.349Z,18.90
2018-02-24T09:49:08.646Z,18.60
2018-02-24T09:51:36.145Z,18.50
2018-02-24T09:54:03.670Z,18.20
2018-02-24T09:56:31.174Z,17.70
2018-02-24T09:58:58.718Z,17.90
2018-02-24T10:01:26.238Z,17.70
2018-02-24T10:03:53.737Z,17.80
2018-02-24T10:06:21.262Z,17.40
2018-02-24T10:08:48.779Z,17.30
2018-02-24T10:11:16.310Z,17.30
2018-02-24T10:13:43.814Z,17.10
2018-02-24T10:16:11.342Z,17.00
2018-02-24T10:18:38.847Z,17.40
2018-02-24T10:21:06.354Z,16.90
2018-02-24T10:23:33.879Z,16.50
2018-02-24T10:26:01.383Z,17.00
2018-02-24T10:28:28.911Z,16.10
2018-02-24T10:30:56.415Z,16.10
2018-02-24T10:33:24.711Z,16.20
2018-02-24T10:35:52.978Z,16.10
2018-02-24T10:38:21.262Z,16.80
2018-02-24T10:40:49.531Z,16.80
2018-02-24T10:43:17.823Z,17.70
2018-02-24T10:45:45.363Z,17.60
2018-02-24T10:48:13.639Z,18.50
2018-02-24T10:50:41.938Z,18.20
2018-02-24T10:53:09.454Z,18.10
2018-02-24T10:55:36.983Z,18.10
2018-02-24T10:58:04.485Z,18.30
2018-02-24T11:00:32.779Z,17.70
2018-02-24T11:03:01.071Z,17.50
2018-02-24T11:05:29.327Z,17.20
2018-02-24T11:07:57.618Z,17.20
2018-02-24T11:10:25.123Z,17.20
2018-02-24T11:12:52.671Z,16.90
2018-02-24T11:15:20.174Z,16.70
2018-02-24T11:17:48.477Z,17.50
2018-02-24T11:20:15.990Z,17.50
2018-02-24T11:22:43.507Z,17.00
2018-02-24T11:25:11.032Z,17.00
2018-02-24T11:27:39.304Z,18.30
2018-02-24T11:30:07.589Z,19.00
2018-02-24T11:32:35.866Z,19.10
2018-02-24T11:35:04.159Z,19.40
2018-02-24T11:37:31.662Z,19.40
2018-02-24T11:39:59.204Z,19.50
2018-02-24T11:42:26.710Z,20.00
2018-02-24T11:44:55.002Z,20.70
2018-02-24T11:47:22.502Z,20.70
2018-02-24T11:49:50.003Z,20.40
2018-02-24T11:52:18.301Z,19.90
2018-02-24T11:54:45.802Z,19.90
2018-02-24T11:57:13.326Z,19.70
2018-02-24T11:59:40.826Z,19.20
2018-02-24T12:02:08.354Z,18.60
2018-02-24T12:04:35.854Z,18.50
2018-02-24T12:07:03.379Z,18.10
2018-02-24T12:09:30.887Z,17.90
2018-02-24T12:11:59.158Z,18.20
2018-02-24T12:14:26.682Z,18.10
2018-02-24T12:16:54.191Z,17.90
2018-02-24T12:19:22.483Z,17.80
2018-02-24T12:21:49.990Z,17.80
2018-02-24T12:24:17.518Z,17.80
2018-02-24T12:26:45.020Z,18.30
2018-02-24T12:29:12.531Z,18.20
2018-02-24T12:31:40.054Z,18.40
2018-02-24T12:34:08.317Z,18.50
2018-02-24T12:36:35.843Z,18.50
2018-02-24T12:39:03.349Z,18.80
2018-02-24T12:41:31.633Z,20.20
2018-02-24T12:43:59.899Z,21.10
2018-02-24T12:46:28.162Z,21.80
2018-02-24T12:48:55.695Z,21.80
2018-02-24T12:51:23.202Z,22.30
2018-02-24T12:53:51.491Z,23.60
2018-02-24T12:56:18.986Z,23.50
2018-02-24T12:58:46.512Z,24.30
2018-02-24T13:01:14.015Z,24.50
2018-02-24T13:03:41.510Z,25.00
2018-02-24T13:06:09.791Z,25.20
2018-02-24T13:08:38.054Z,25.50
2018-02-24T13:11:06.343Z,25.50
2018-02-24T13:13:34.626Z,25.90
2018-02-24T13:16:02.150Z,25.90
2018-02-24T13:18:29.646Z,26.10
2018-02-24T13:20:57.146Z,26.40
2018-02-24T13:23:25.433Z,25.90
2018-02-24T13:25:52.928Z,25.90
2018-02-24T13:28:21.206Z,26.10
2018-02-24T13:30:49.467Z,26.40
2018-02-24T13:33:17.742Z,27.70
2018-02-24T13:35:46.011Z,28.20
2018-02-24T13:38:13.571Z,28.10
2018-02-24T13:40:41.066Z,28.20
2018-02-24T13:43:08.563Z,28.40
2018-02-24T13:45:36.847Z,28.90
2018-02-24T13:48:04.350Z,29.30
2018-02-24T13:50:31.871Z,28.70
2018-02-24T13:52:59.362Z,28.30
2018-02-24T13:55:27.650Z,27.80
2018-02-24T13:57:55.150Z,27.80
2018-02-24T14:00:22.642Z,27.70
2018-02-24T14:02:50.942Z,28.10
2018-02-24T14:05:18.451Z,28.10
2018-02-24T14:07:45.979Z,27.80
2018-02-24T14:10:13.532Z,28.00
2018-02-24T14:12:41.046Z,28.40
2018-02-24T14:15:08.550Z,28.20
2018-02-24T14:17:36.051Z,28.00
2018-02-24T14:20:03.566Z,28.30
2018-02-24T14:22:31.092Z,28.60
2018-02-24T14:24:59.370Z,29.20
2018-02-24T14:27:27.633Z,29.00
2018-02-24T14:29:55.158Z,29.00
2018-02-24T14:32:22.668Z,28.70
2018-02-24T14:34:50.936Z,28.90
2018-02-24T14:37:19.228Z,28.80
2018-02-24T14:39:47.491Z,28.80
2018-02-24T14:42:15.779Z,28.90
2018-02-24T14:44:43.278Z,28.90
2018-02-24T14:47:10.802Z,29.10
2018-02-24T14:49:38.302Z,28.80
2018-02-24T14:52:05.798Z,29.00
2018-02-24T14:54:34.083Z,29.00
2018-02-24T14:57:01.574Z,29.00
2018-02-24T14:59:29.099Z,29.10
2018-02-24T15:01:57.359Z,29.00
2018-02-24T15:04:24.879Z,29.00
2018-02-24T15:06:52.379Z,29.20
2018-02-24T15:09:20.651Z,29.70
2018-02-24T15:11:48.167Z,29.50
2018-02-24T15:14:15.658Z,29.40
2018-02-24T15:16:43.173Z,29.10
2018-02-24T15:19:10.675Z,29.20
2018-02-24T15:21:38.190Z,29.10
2018-02-24T15:24:05.686Z,29.20
2018-02-24T15:26:33.182Z,29.20
2018-02-24T15:29:01.466Z,28.70
2018-02-24T15:31:28.970Z,28.70
2018-02-24T15:33:57.259Z,28.80
2018-02-24T15:36:24.754Z,28.80
2018-02-24T15:38:53.038Z,29.00
2018-02-24T15:41:20.535Z,28.90
2018-02-24T15:43:48.034Z,29.10
2018-02-24T15:46:15.555Z,29.10
2018-02-24T15:48:43.050Z,29.10
2018-02-24T15:51:11.422Z,29.00
2018-02-24T15:53:39.686Z,29.50
2018-02-24T15:56:07.198Z,29.20
2018-02-24T15:58:34.699Z,29.00
2018-02-24T16:01:02.213Z,29.10
2018-02-24T16:03:29.707Z,29.20
2018-02-24T16:05:57.196Z,28.80
2018-02-24T16:08:25.473Z,28.80
2018-02-24T16:10:53.735Z,29.40
2018-02-24T16:13:21.251Z,29.40
2018-02-24T16:15:48.738Z,29.30
2018-02-24T16:18:16.278Z,29.20
2018-02-24T16:20:43.775Z,29.30
2018-02-24T16:23:11.265Z,29.50
2018-02-24T16:25:38.789Z,29.50
2018-02-24T16:28:06.287Z,29.50
2018-02-24T16:30:33.802Z,29.60
2018-02-24T16:33:01.299Z,29.90
2018-02-24T16:35:28.815Z,30.00
2018-02-24T16:37:56.302Z,30.10
2018-02-24T16:40:24.582Z,30.70
2018-02-24T16:42:52.837Z,30.90
2018-02-24T16:45:20.344Z,30.90
2018-02-24T16:47:47.862Z,31.10
2018-02-24T16:50:16.131Z,31.60
2018-02-24T16:52:43.659Z,31.50
2018-02-24T16:55:11.159Z,32.00
2018-02-24T16:57:39.443Z,32.70
2018-02-24T17:00:07.758Z,33.20
2018-02-24T17:02:35.242Z,33.20
2018-02-24T17:05:02.730Z,33.50
2018-02-24T17:07:30.985Z,34.30
2018-02-24T17:09:58.506Z,34.20
2018-02-24T17:12:25.994Z,34.50
2018-02-24T17:14:53.510Z,34.70
2018-02-24T17:17:21.002Z,35.40
2018-02-24T17:19:48.526Z,36.00
2018-02-24T17:22:16.014Z,36.40
2018-02-24T17:24:43.510Z,36.80
2018-02-24T17:27:11.790Z,37.50
2018-02-24T17:29:40.081Z,37.90
2018-02-24T17:32:07.574Z,37.90
2018-02-24T17:34:35.062Z,38.20
2018-02-24T17:37:02.579Z,38.30
2018-02-24T17:39:30.069Z,38.40
2018-02-24T17:41:57.558Z,38.90
2018-02-24T17:44:25.840Z,39.60
2018-02-24T17:46:54.094Z,40.10
2018-02-24T17:49:21.610Z,40.10
2018-02-24T17:51:49.107Z,40.20
2018-02-24T17:54:16.622Z,40.30
2018-02-24T17:56:44.118Z,39.80
2018-02-24T17:59:11.611Z,39.20
2018-02-24T18:01:39.895Z,39.30
2018-02-24T18:04:07.386Z,39.20
2018-02-24T18:06:34.898Z,39.20
2018-02-24T18:09:03.159Z,39.00
2018-02-24T18:11:30.679Z,39.00
2018-02-24T18:13:58.173Z,40.50
2018-02-24T18:16:25.663Z,39.80
2018-02-24T18:18:53.174Z,39.50
2018-02-24T18:21:20.662Z,39.30
2018-02-24T18:23:48.942Z,39.70
2018-02-24T18:26:17.223Z,39.70
2018-02-24T18:28:45.506Z,40.00
2018-02-24T18:31:13.000Z,39.90
2018-02-24T18:33:40.494Z,39.70
2018-02-24T18:36:08.019Z,40.00
2018-02-24T18:38:35.526Z,40.70
2018-02-24T18:41:03.815Z,40.30
2018-02-24T18:43:31.306Z,40.30
2018-02-24T18:45:58.827Z,40.60
2018-02-24T18:48:27.090Z,40.80
2018-02-24T18:50:55.400Z,40.60
2018-02-24T18:53:23.646Z,40.50
2018-02-24T18:55:51.911Z,40.50
2018-02-24T18:58:19.429Z,40.50
2018-02-24T19:00:46.927Z,41.30
2018-02-24T19:03:14.443Z,40.80
2018-02-24T19:05:41.939Z,41.20
2018-02-24T19:08:09.459Z,41.40
2018-02-24T19:10:36.965Z,41.90
2018-02-24T19:13:05.235Z,43.20
2018-02-24T19:15:32.750Z,42.60
2018-02-24T19:18:00.251Z,43.00
2018-02-24T19:20:27.778Z,43.60
2018-02-24T19:22:55.275Z,44.10
2018-02-24T19:25:23.563Z,45.60
2018-02-24T19:27:51.826Z,46.30
2018-02-24T19:30:19.326Z,46.30
2018-02-24T19:32:46.842Z,47.20
2018-02-24T19:35:14.342Z,47.40
2018-02-24T19:37:41.863Z,48.10
2018-02-24T19:40:10.119Z,48.40
2018-02-24T19:42:37.639Z,48.40
2018-02-24T19:45:05.135Z,48.40
2018-02-24T19:47:32.630Z,48.80
2018-02-24T19:50:00.158Z,49.30
2018-02-24T19:52:27.654Z,49.70
2018-02-24T19:54:55.169Z,50.00
2018-02-24T19:57:22.662Z,50.30
2018-02-24T19:59:50.951Z,50.60
2018-02-24T20:02:18.442Z,50.60
2018-02-24T20:04:45.962Z,50.30
2018-02-24T20:07:13.462Z,50.30
2018-02-24T20:09:40.953Z,50.00
2018-02-24T20:12:08.470Z,50.20
2018-02-24T20:14:35.966Z,50.50
2018-02-24T20:17:03.490Z,50.10
2018-02-24T20:19:30.982Z,50.20
2018-02-24T20:21:58.511Z,50.40
2018-02-24T20:24:26.004Z,50.20
2018-02-24T20:26:53.502Z,50.00
2018-02-24T20:29:21.018Z,50.30
2018-02-24T20:31:48.514Z,50.60
2018-02-24T20:34:16.030Z,51.00
2018-02-24T20:36:43.527Z,50.70
2018-02-24T20:39:11.042Z,51.00
2018-02-24T20:41:38.534Z,51.20
2018-02-24T20:44:06.795Z,51.30
2018-02-24T20:46:35.083Z,51.50
2018-02-24T20:49:03.347Z,51.30
2018-02-24T20:51:31.630Z,51.70
2018-02-24T20:53:59.890Z,51.80
2018-02-24T20:56:27.406Z,51.80
2018-02-24T20:58:54.907Z,51.80
2018-02-24T21:01:22.408Z,51.70
2018-02-24T21:03:49.938Z,51.70
2018-02-24T21:06:18.204Z,51.70
2018-02-24T21:08:46.491Z,51.50
2018-02-24T21:11:14.763Z,52.40
2018-02-24T21:13:43.046Z,52.00
2018-02-24T21:16:11.310Z,52.20
2018-02-24T21:18:39.579Z,52.30
2018-02-24T21:21:07.098Z,52.20
2018-02-24T21:23:34.598Z,52.60
2018-02-24T21:26:02.119Z,52.70
2018-02-24T21:28:29.618Z,53.60
2018-02-24T21:30:57.138Z,53.00
2018-02-24T21:33:24.639Z,52.90
2018-02-24T21:35:52.907Z,53.00
2018-02-24T21:38:20.427Z,52.90
2018-02-24T21:40:47.929Z,52.90
2018-02-24T21:43:16.214Z,53.60
2018-02-24T21:45:44.482Z,53.60
2018-02-24T21:48:12.770Z,53.80
2018-02-24T21:50:41.034Z,54.20
2018-02-24T21:53:09.323Z,54.50
2018-02-24T21:55:36.831Z,54.10
2018-02-24T21:58:04.323Z,54.20
2018-02-24T22:00:31.847Z,54.50
2018-02-24T22:02:59.342Z,54.30
2018-02-24T22:05:26.866Z,54.20
2018-02-24T22:07:54.362Z,54.30
2018-02-24T22:10:22.647Z,54.70
2018-02-24T22:12:50.910Z,55.20
2018-02-24T22:15:18.409Z,55.10
2018-02-24T22:17:45.925Z,55.20
2018-02-24T22:20:13.428Z,55.50
2018-02-24T22:22:40.950Z,55.20
2018-02-24T22:25:09.215Z,56.00
2018-02-24T22:27:36.734Z,55.50
2018-02-24T22:30:04.232Z,55.10
2018-02-24T22:32:31.754Z,55.40
2018-02-24T22:34:59.246Z,55.40
2018-02-24T22:37:26.743Z,55.90
2018-02-24T22:39:54.258Z,55.90
2018-02-24T22:42:21.758Z,56.00
2018-02-24T22:44:49.282Z,55.90
2018-02-24T22:47:16.778Z,56.20
2018-02-24T22:49:44.298Z,56.10
2018-02-24T22:52:11.799Z,56.50
2018-02-24T22:54:39.303Z,56.20
2018-02-24T22:57:06.823Z,56.40
2018-02-24T22:59:34.322Z,56.30
2018-02-24T23:02:01.839Z,56.20
2018-02-24T23:04:29.337Z,56.10
2018-02-24T23:06:56.860Z,56.20
2018-02-24T23:09:24.366Z,56.30
2018-02-24T23:11:51.864Z,56.10
2018-02-24T23:14:19.387Z,56.00
2018-02-24T23:16:46.882Z,56.10
2018-02-24T23:19:14.402Z,56.00
2018-02-24T23:21:41.904Z,56.30
2018-02-24T23:24:09.402Z,56.00
2018-02-24T23:26:36.914Z,56.40
2018-02-24T23:29:04.405Z,56.10
2018-02-24T23:31:31.930Z,56.30
2018-02-24T23:33:59.426Z,56.50
2018-02-24T23:36:26.922Z,56.40
2018-02-24T23:38:55.205Z,57.00
2018-02-24T23:41:23.470Z,57.20
2018-02-24T23:43:51.761Z,57.50
2018-02-24T23:46:20.028Z,57.80
2018-02-24T23:48:47.531Z,57.80
2018-02-24T23:51:15.051Z,58.10
2018-02-24T23:53:43.343Z,58.80
2018-02-24T23:56:10.875Z,58.80
2018-02-24T23:58:39.139Z,58.80
